Time;durP1;ratioP1;P1;durP2;ratioP2;P2;SDS_P1;SDS_P2;PMS_P1;PMS_P2;Temp;Humidity;BMP_temperature;BMP_pressure;BME280_temperature;BME280_humidity;BME280_pressure;Samples;Min_cycle;Max_cycle;Signal;HPM_P1;HPM_P2
2024/02/11 00:00:10;;;;;;;27.45;13.52;;;7.40;99.90;;;;;;4954257;29;20905;-64
2024/02/11 00:02:37;;;;;;;26.38;14.10;;;7.30;99.90;;;;;;4956839;28;20106;-63
2024/02/11 00:05:07;;;;;;;29.60;15.15;;;7.20;99.90;;;;;;4953731;29;20089;-62
2024/02/11 00:07:37;;;;;;;30.42;16.23;;;7.30;99.90;;;;;;4937165;29;20034;-63
2024/02/11 00:10:08;;;;;;;29.80;15.70;;;7.30;99.90;;;;;;4944700;29;20035;-63
2024/02/11 00:12:35;;;;;;;30.55;15.85;;;7.40;99.90;;;;;;4954616;29;20375;-62
2024/02/11 00:15:01;;;;;;;30.63;16.60;;;7.40;99.90;;;;;;4953519;29;20348;-63
2024/02/11 00:17:27;;;;;;;29.73;16.38;;;7.30;99.90;;;;;;4954032;29;20045;-63
2024/02/11 00:19:52;;;;;;;33.20;17.50;;;7.30;99.90;;;;;;4953166;29;20062;-62
2024/02/11 00:22:18;;;;;;;32.08;17.48;;;7.30;99.90;;;;;;4952224;29;20058;-63
2024/02/11 00:24:44;;;;;;;30.67;16.67;;;7.30;99.90;;;;;;4953021;29;20499;-62
2024/02/11 00:27:12;;;;;;;32.70;16.85;;;7.20;99.90;;;;;;4950739;29;20082;-63
2024/02/11 00:29:40;;;;;;;33.30;17.25;;;7.10;99.90;;;;;;4953900;29;20459;-61
2024/02/11 00:32:06;;;;;;;30.60;16.55;;;7.00;99.90;;;;;;4953944;29;20034;-62
2024/02/11 00:34:32;;;;;;;39.25;18.00;;;7.00;99.90;;;;;;4955430;28;20023;-62
2024/02/11 00:36:57;;;;;;;33.05;17.10;;;7.00;99.90;;;;;;4957532;28;20037;-62
2024/02/11 00:39:23;;;;;;;30.23;17.40;;;7.10;99.90;;;;;;4954868;28;20038;-62
2024/02/11 00:41:49;;;;;;;32.67;16.02;;;7.20;99.90;;;;;;4953638;29;20539;-62
2024/02/11 00:44:15;;;;;;;30.63;15.88;;;7.20;99.90;;;;;;4952815;29;20035;-62
2024/02/11 00:46:41;;;;;;;29.67;14.63;;;7.20;99.90;;;;;;4950162;29;20082;-62
2024/02/11 00:49:08;;;;;;;30.42;16.23;;;7.10;99.90;;;;;;4953477;29;20684;-62
2024/02/11 00:51:34;;;;;;;32.03;15.55;;;7.20;99.90;;;;;;4952693;29;20030;-64
2024/02/11 00:54:03;;;;;;;29.38;15.60;;;7.20;99.90;;;;;;4953723;29;20566;-62
2024/02/11 00:56:29;;;;;;;29.65;15.98;;;7.20;99.90;;;;;;4953126;29;20070;-62
2024/02/11 00:58:56;;;;;;;31.00;16.33;;;7.20;99.90;;;;;;4953115;29;20059;-61
2024/02/11 01:01:23;;;;;;;33.08;17.48;;;7.30;99.90;;;;;;4953112;29;20094;-62
2024/02/11 01:03:56;;;;;;;28.92;15.30;;;7.50;99.90;;;;;;4953496;29;20548;-61
2024/02/11 01:06:25;;;;;;;30.65;16.40;;;7.50;99.90;;;;;;4946398;29;20035;-61
2024/02/11 01:08:51;;;;;;;30.65;15.43;;;7.60;99.90;;;;;;4951474;28;20043;-61
2024/02/11 01:11:19;;;;;;;29.67;15.45;;;7.60;99.90;;;;;;4949058;29;20049;-61
2024/02/11 01:13:48;;;;;;;30.27;16.20;;;7.60;99.90;;;;;;4952741;29;20027;-62
2024/02/11 01:16:14;;;;;;;32.03;15.57;;;7.60;99.90;;;;;;4953202;29;20039;-61
2024/02/11 01:18:39;;;;;;;28.33;14.98;;;7.60;99.90;;;;;;4952947;29;20039;-62
2024/02/11 01:21:07;;;;;;;33.03;15.82;;;7.60;99.90;;;;;;4934648;29;20039;-62
2024/02/11 01:23:33;;;;;;;28.45;15.80;;;7.70;99.90;;;;;;4953135;29;20027;-62
2024/02/11 01:25:59;;;;;;;29.42;15.57;;;7.80;99.90;;;;;;4953493;29;20491;-62
2024/02/11 01:28:24;;;;;;;27.80;14.52;;;7.80;99.90;;;;;;4956317;28;20059;-61
2024/02/11 01:30:50;;;;;;;29.63;15.45;;;7.80;99.90;;;;;;4953007;29;20421;-62
2024/02/11 01:33:16;;;;;;;27.08;14.85;;;7.80;99.90;;;;;;4952479;29;20026;-62
2024/02/11 01:35:42;;;;;;;27.85;14.23;;;7.90;99.90;;;;;;4950825;28;20419;-62
2024/02/11 01:38:09;;;;;;;29.40;14.75;;;7.80;99.90;;;;;;4951971;29;20483;-62
2024/02/11 01:40:35;;;;;;;30.02;14.65;;;7.80;99.90;;;;;;4951014;29;20086;-61
2024/02/11 01:43:07;;;;;;;27.95;15.25;;;7.80;99.90;;;;;;4952432;29;20035;-61
2024/02/11 01:45:35;;;;;;;27.38;15.73;;;7.80;99.90;;;;;;4949560;29;20495;-61
2024/02/11 01:48:05;;;;;;;27.20;14.38;;;7.80;99.90;;;;;;4952999;29;20032;-61
2024/02/11 01:50:33;;;;;;;25.67;14.15;;;7.80;99.90;;;;;;4946966;29;20065;-61
2024/02/11 01:52:59;;;;;;;27.38;14.38;;;7.80;99.90;;;;;;4934584;29;20122;-62
2024/02/11 01:55:26;;;;;;;26.13;13.98;;;7.70;99.90;;;;;;4953633;28;20453;-62
2024/02/11 01:57:55;;;;;;;28.65;14.68;;;7.60;99.90;;;;;;4952366;29;20035;-62
2024/02/11 02:00:21;;;;;;;27.70;14.40;;;7.60;99.90;;;;;;4948988;29;20387;-61
2024/02/11 02:02:49;;;;;;;29.25;15.20;;;7.60;99.90;;;;;;4952184;29;20028;-61
2024/02/11 02:05:15;;;;;;;25.88;15.00;;;7.60;99.90;;;;;;4944842;29;20047;-61
2024/02/11 02:07:41;;;;;;;31.25;16.17;;;7.60;99.90;;;;;;4952140;29;20035;-62
2024/02/11 02:10:08;;;;;;;29.95;15.68;;;7.80;99.90;;;;;;4948730;29;20471;-61
2024/02/11 02:12:35;;;;;;;27.10;15.05;;;7.80;99.90;;;;;;4952365;29;20027;-61
2024/02/11 02:15:01;;;;;;;30.48;15.77;;;7.80;99.90;;;;;;4935500;29;20035;-61
2024/02/11 02:17:29;;;;;;;25.60;14.32;;;7.80;99.90;;;;;;4952508;29;20767;-61
2024/02/11 02:19:54;;;;;;;29.90;14.68;;;7.80;99.90;;;;;;4949869;28;20547;-61
2024/02/11 02:22:20;;;;;;;26.70;14.85;;;7.80;99.90;;;;;;4944585;29;20122;-61
2024/02/11 02:24:49;;;;;;;25.95;14.30;;;7.70;99.90;;;;;;4951530;29;20506;-63
2024/02/11 02:27:16;;;;;;;27.48;15.20;;;7.80;99.90;;;;;;4934362;29;20027;-61
2024/02/11 02:29:44;;;;;;;30.33;15.05;;;7.80;99.90;;;;;;4951933;29;20494;-61
2024/02/11 02:32:11;;;;;;;28.58;15.05;;;7.90;99.90;;;;;;4948896;29;20110;-61
2024/02/11 02:34:37;;;;;;;30.90;16.58;;;7.80;99.90;;;;;;4951411;29;20027;-61
2024/02/11 02:37:03;;;;;;;28.80;14.70;;;7.80;99.90;;;;;;4949143;29;20027;-61
2024/02/11 02:39:29;;;;;;;27.17;14.80;;;7.70;99.90;;;;;;4951507;29;20031;-61
2024/02/11 02:41:55;;;;;;;25.58;14.35;;;7.60;99.90;;;;;;4948831;29;20035;-61
2024/02/11 02:44:20;;;;;;;27.90;14.80;;;7.60;99.90;;;;;;4950817;29;20035;-61
2024/02/11 02:46:46;;;;;;;25.38;14.68;;;7.60;99.90;;;;;;4949108;29;20163;-61
2024/02/11 02:49:12;;;;;;;27.85;14.57;;;7.60;99.90;;;;;;4950637;29;20035;-61
2024/02/11 02:51:39;;;;;;;26.95;14.30;;;7.60;99.90;;;;;;4950357;29;20030;-61
2024/02/11 02:54:05;;;;;;;29.10;14.95;;;7.60;99.90;;;;;;4933748;29;20036;-61
2024/02/11 02:56:34;;;;;;;26.00;13.80;;;7.50;99.90;;;;;;4946454;29;20030;-62
2024/02/11 02:59:08;;;;;;;24.70;13.52;;;7.40;99.90;;;;;;4947973;29;20027;-61
2024/02/11 03:01:35;;;;;;;29.90;14.07;;;7.40;99.90;;;;;;4948213;29;20016;-61
2024/02/11 03:04:02;;;;;;;30.02;13.82;;;7.40;99.90;;;;;;4951215;29;20478;-61
2024/02/11 03:06:30;;;;;;;27.60;14.10;;;7.40;99.90;;;;;;4947336;29;20034;-61
2024/02/11 03:08:56;;;;;;;28.80;15.15;;;7.50;99.90;;;;;;4949280;29;20106;-62
2024/02/11 03:11:22;;;;;;;27.65;13.70;;;7.60;99.90;;;;;;4936122;29;20126;-62
2024/02/11 03:13:47;;;;;;;22.63;13.55;;;7.70;99.90;;;;;;4951214;29;20474;-62
2024/02/11 03:16:16;;;;;;;26.33;12.63;;;7.70;99.90;;;;;;4951053;29;20050;-62
2024/02/11 03:18:42;;;;;;;27.05;13.32;;;7.70;99.90;;;;;;4950569;29;20050;-62
2024/02/11 03:21:11;;;;;;;24.77;12.63;;;7.70;99.90;;;;;;4947025;29;20047;-62
2024/02/11 03:23:37;;;;;;;23.58;12.50;;;7.70;99.90;;;;;;4950666;29;20042;-61
2024/02/11 03:26:10;;;;;;;20.88;11.05;;;7.70;99.90;;;;;;4934319;29;20033;-61
2024/02/11 03:28:36;;;;;;;19.48;11.00;;;7.80;99.90;;;;;;4950877;29;20027;-61
2024/02/11 03:31:03;;;;;;;20.60;11.00;;;7.90;99.90;;;;;;4948459;29;20058;-61
2024/02/11 03:33:30;;;;;;;20.17;10.48;;;7.90;99.90;;;;;;4950164;29;20031;-61
2024/02/11 03:35:56;;;;;;;19.15;10.13;;;7.90;99.90;;;;;;4945179;29;20027;-62
2024/02/11 03:38:23;;;;;;;22.42;10.50;;;7.90;99.90;;;;;;4950133;29;20375;-61
2024/02/11 03:40:55;;;;;;;18.08;10.38;;;7.90;99.90;;;;;;4942875;29;20019;-61
2024/02/11 03:43:21;;;;;;;19.38;9.80;;;7.90;99.90;;;;;;4949350;29;20023;-61
2024/02/11 03:45:48;;;;;;;20.20;10.95;;;7.90;99.90;;;;;;4949193;29;20207;-61
2024/02/11 03:48:14;;;;;;;21.35;10.05;;;7.90;99.90;;;;;;4949969;29;20039;-61
2024/02/11 03:50:40;;;;;;;17.88;9.20;;;8.00;99.90;;;;;;4947775;29;20220;-61
2024/02/11 03:53:08;;;;;;;21.92;10.55;;;8.00;99.90;;;;;;4949660;29;20097;-61
2024/02/11 03:55:33;;;;;;;17.58;10.20;;;8.10;99.90;;;;;;4939802;29;20083;-61
2024/02/11 03:58:02;;;;;;;20.00;9.77;;;8.10;99.90;;;;;;4949876;29;20440;-61
2024/02/11 04:00:30;;;;;;;17.33;9.70;;;8.20;99.90;;;;;;4948614;29;20038;-62
2024/02/11 04:02:57;;;;;;;18.42;9.63;;;8.20;99.90;;;;;;4933297;29;20035;-62
2024/02/11 04:05:24;;;;;;;18.90;9.32;;;8.20;99.90;;;;;;4948447;29;20028;-61
2024/02/11 04:07:50;;;;;;;17.63;9.20;;;8.20;99.90;;;;;;4950508;29;20024;-62
2024/02/11 04:10:19;;;;;;;17.20;8.88;;;8.20;99.90;;;;;;4950306;29;20067;-62
2024/02/11 04:12:52;;;;;;;19.63;9.68;;;8.30;99.90;;;;;;4931253;29;20034;-63
2024/02/11 04:15:22;;;;;;;16.88;8.73;;;8.30;99.90;;;;;;4949821;29;20023;-62
2024/02/11 04:17:49;;;;;;;18.17;9.75;;;8.20;99.90;;;;;;4950396;29;20047;-62
2024/02/11 04:20:24;;;;;;;18.30;8.80;;;8.20;99.90;;;;;;4948595;29;20075;-62
2024/02/11 04:23:00;;;;;;;19.15;9.95;;;8.20;99.90;;;;;;4950499;29;20027;-62
2024/02/11 04:25:36;;;;;;;16.70;9.00;;;8.10;99.90;;;;;;4950402;29;20074;-62
2024/02/11 04:28:08;;;;;;;15.93;8.80;;;8.10;99.90;;;;;;4947831;29;20090;-62
2024/02/11 04:30:37;;;;;;;16.95;8.45;;;8.20;99.90;;;;;;4948790;29;20031;-62
2024/02/11 04:33:06;;;;;;;17.42;8.57;;;8.10;99.90;;;;;;4950665;29;20027;-62
2024/02/11 04:35:33;;;;;;;17.48;9.00;;;8.20;99.90;;;;;;4948483;29;20028;-62
2024/02/11 04:37:59;;;;;;;20.52;9.35;;;8.10;99.90;;;;;;4950185;29;20100;-62
2024/02/11 04:40:26;;;;;;;17.23;8.18;;;8.10;99.90;;;;;;4948700;29;20027;-62
2024/02/11 04:42:52;;;;;;;17.88;8.50;;;8.10;99.90;;;;;;4950676;28;20046;-62
2024/02/11 04:45:19;;;;;;;16.77;9.20;;;8.00;99.90;;;;;;4939846;29;20019;-62
2024/02/11 04:47:48;;;;;;;17.60;8.20;;;8.00;99.90;;;;;;4953540;29;20391;-62
2024/02/11 04:50:19;;;;;;;15.73;7.45;;;8.00;99.90;;;;;;4951945;29;20028;-61
2024/02/11 04:52:54;;;;;;;13.25;7.40;;;8.10;99.90;;;;;;4952265;29;20496;-62
2024/02/11 04:55:29;;;;;;;18.83;7.43;;;8.20;99.90;;;;;;4950248;29;20173;-62
2024/02/11 04:58:01;;;;;;;14.23;6.35;;;8.40;99.90;;;;;;4950066;29;20024;-62
2024/02/11 05:00:33;;;;;;;16.83;7.20;;;8.50;99.90;;;;;;4951971;29;20087;-63
2024/02/11 05:03:03;;;;;;;15.57;7.15;;;8.60;99.90;;;;;;4953260;29;20480;-62
2024/02/11 05:05:31;;;;;;;14.02;7.47;;;8.70;99.90;;;;;;4951999;29;20260;-63
2024/02/11 05:08:03;;;;;;;16.27;6.85;;;8.70;99.90;;;;;;4953676;29;20055;-62
2024/02/11 05:10:37;;;;;;;14.88;6.03;;;8.90;99.90;;;;;;4953034;29;20020;-62
2024/02/11 05:13:06;;;;;;;12.70;6.18;;;8.90;99.90;;;;;;4950265;29;20019;-62
2024/02/11 05:15:32;;;;;;;15.67;6.67;;;8.90;99.90;;;;;;4950011;29;20032;-62
2024/02/11 05:18:00;;;;;;;12.98;6.05;;;9.00;99.90;;;;;;4952876;29;20051;-62
2024/02/11 05:20:27;;;;;;;13.70;6.15;;;9.10;99.90;;;;;;4937385;29;20061;-62
2024/02/11 05:22:55;;;;;;;12.15;5.82;;;9.20;99.90;;;;;;4953006;29;20031;-61
2024/02/11 05:25:25;;;;;;;12.88;6.10;;;9.20;99.90;;;;;;4952055;29;20479;-62
2024/02/11 05:27:57;;;;;;;12.00;5.75;;;9.20;99.90;;;;;;4952385;29;20562;-63
2024/02/11 05:30:27;;;;;;;14.68;6.57;;;9.30;99.90;;;;;;4951601;29;20019;-62
2024/02/11 05:32:54;;;;;;;15.57;6.63;;;9.30;99.90;;;;;;4952771;29;20043;-63
2024/02/11 05:35:23;;;;;;;13.48;6.30;;;9.40;99.90;;;;;;4952609;29;20023;-63
2024/02/11 05:37:59;;;;;;;12.80;6.07;;;9.30;99.90;;;;;;4949274;29;20024;-63
2024/02/11 05:40:30;;;;;;;14.35;6.15;;;9.30;99.90;;;;;;4945919;29;20401;-62
2024/02/11 05:42:56;;;;;;;12.60;6.13;;;9.20;99.90;;;;;;4947297;29;20075;-63
2024/02/11 05:45:23;;;;;;;13.43;5.97;;;9.20;99.90;;;;;;4950084;29;20075;-63
2024/02/11 05:47:52;;;;;;;13.00;6.43;;;9.10;99.90;;;;;;4943417;29;20038;-63
2024/02/11 05:50:20;;;;;;;15.97;6.37;;;9.00;99.90;;;;;;4951525;29;20055;-63
2024/02/11 05:52:46;;;;;;;14.18;6.45;;;8.90;99.90;;;;;;4947184;29;20177;-63
2024/02/11 05:55:16;;;;;;;13.60;6.57;;;8.90;99.90;;;;;;4951003;28;20031;-63
2024/02/11 05:57:49;;;;;;;17.85;7.22;;;8.80;99.90;;;;;;4952139;29;20027;-63
2024/02/11 06:00:18;;;;;;;16.70;6.93;;;8.60;99.90;;;;;;4926233;29;20468;-63
2024/02/11 06:02:48;;;;;;;15.65;6.93;;;8.60;99.90;;;;;;4948410;29;20031;-63
2024/02/11 06:05:15;;;;;;;13.35;6.45;;;8.50;99.90;;;;;;4951644;29;20102;-63
2024/02/11 06:07:55;;;;;;;13.98;6.68;;;8.50;99.90;;;;;;4952306;29;20475;-63
2024/02/11 06:10:23;;;;;;;15.40;7.38;;;8.60;99.90;;;;;;4950129;29;20772;-63
2024/02/11 06:12:49;;;;;;;16.67;7.00;;;8.80;99.90;;;;;;4952246;29;20028;-63
2024/02/11 06:15:20;;;;;;;13.18;6.00;;;8.90;99.90;;;;;;4951459;29;20030;-63
2024/02/11 06:17:46;;;;;;;12.98;6.38;;;9.00;99.90;;;;;;4948723;29;20467;-63
2024/02/11 06:20:15;;;;;;;14.70;6.90;;;9.10;99.90;;;;;;4951245;29;20059;-63
2024/02/11 06:22:44;;;;;;;12.35;5.90;;;9.10;99.90;;;;;;4950121;29;20058;-63
2024/02/11 06:25:13;;;;;;;15.07;6.18;;;9.10;99.90;;;;;;4950393;29;20078;-63
2024/02/11 06:27:40;;;;;;;13.48;6.55;;;9.10;99.90;;;;;;4951678;29;20046;-63
2024/02/11 06:30:13;;;;;;;14.68;6.20;;;9.10;99.90;;;;;;4951320;29;20055;-63
2024/02/11 06:32:42;;;;;;;12.98;6.20;;;9.20;99.90;;;;;;4951605;29;20678;-61
2024/02/11 06:35:10;;;;;;;13.10;6.27;;;9.30;99.90;;;;;;4949704;28;20032;-62
2024/02/11 06:37:40;;;;;;;12.30;5.10;;;9.40;99.90;;;;;;4952133;29;20051;-62
2024/02/11 06:40:10;;;;;;;12.70;5.80;;;9.40;99.90;;;;;;4951390;29;20023;-63
2024/02/11 06:42:39;;;;;;;10.60;5.00;;;9.50;99.90;;;;;;4951762;29;20054;-62
2024/02/11 06:45:08;;;;;;;11.65;5.40;;;9.50;99.90;;;;;;4951616;29;20118;-60
2024/02/11 06:47:36;;;;;;;10.48;5.00;;;9.70;99.90;;;;;;4951673;29;20027;-61
2024/02/11 06:50:03;;;;;;;11.25;5.22;;;9.70;99.90;;;;;;4951536;29;20037;-61
2024/02/11 06:52:29;;;;;;;9.65;4.65;;;9.70;99.90;;;;;;4949928;29;20028;-61
2024/02/11 06:54:55;;;;;;;10.85;4.70;;;9.70;99.90;;;;;;4949604;29;20024;-62
2024/02/11 06:57:22;;;;;;;9.02;3.58;;;9.80;99.90;;;;;;4948706;29;20042;-62
2024/02/11 06:59:48;;;;;;;10.77;4.88;;;9.80;99.90;;;;;;4951005;29;20114;-62
2024/02/11 07:02:14;;;;;;;9.35;4.28;;;9.80;99.90;;;;;;4951169;29;20102;-62
2024/02/11 07:04:43;;;;;;;9.27;4.05;;;9.70;99.90;;;;;;4950699;28;20391;-62
2024/02/11 07:07:09;;;;;;;12.48;4.07;;;9.80;99.90;;;;;;4950336;29;20031;-61
2024/02/11 07:09:35;;;;;;;9.20;3.72;;;9.70;99.90;;;;;;4950750;29;20031;-62
2024/02/11 07:12:01;;;;;;;7.43;3.40;;;9.80;99.90;;;;;;4941988;29;20081;-62
2024/02/11 07:14:27;;;;;;;5.03;1.90;;;9.70;99.90;;;;;;4950650;29;20042;-62
2024/02/11 07:16:53;;;;;;;3.00;1.15;;;9.70;99.90;;;;;;4951392;29;20034;-62
2024/02/11 07:19:24;;;;;;;2.88;1.30;;;9.50;99.90;;;;;;4949628;29;20101;-62
2024/02/11 07:21:51;;;;;;;3.38;1.15;;;9.40;99.90;;;;;;4949601;29;20055;-62
2024/02/11 07:24:17;;;;;;;3.75;1.23;;;9.30;99.90;;;;;;4941029;29;20086;-61
2024/02/11 07:26:43;;;;;;;4.60;1.38;;;9.10;99.90;;;;;;4947714;29;20126;-61
2024/02/11 07:29:09;;;;;;;3.22;1.30;;;9.00;99.90;;;;;;4932650;29;20111;-61
2024/02/11 07:31:35;;;;;;;5.20;1.83;;;8.90;99.90;;;;;;4951147;29;20019;-61
2024/02/11 07:34:02;;;;;;;9.07;2.30;;;8.80;99.90;;;;;;4950746;29;20042;-61
2024/02/11 07:36:28;;;;;;;7.90;2.30;;;8.70;99.90;;;;;;4945813;29;20024;-61
2024/02/11 07:38:54;;;;;;;6.20;2.40;;;8.60;99.90;;;;;;4949079;29;20027;-61
2024/02/11 07:41:21;;;;;;;8.40;2.80;;;8.60;99.90;;;;;;4945078;29;20031;-61
2024/02/11 07:43:47;;;;;;;7.32;2.80;;;8.50;99.90;;;;;;4950892;29;20031;-61
2024/02/11 07:46:13;;;;;;;10.85;3.45;;;8.30;99.90;;;;;;4950684;29;20371;-61
2024/02/11 07:48:40;;;;;;;9.25;3.55;;;8.30;99.90;;;;;;4950996;29;20034;-61
2024/02/11 07:51:06;;;;;;;9.05;3.10;;;8.30;99.90;;;;;;4942362;29;20043;-61
2024/02/11 07:53:32;;;;;;;7.03;2.50;;;8.30;99.90;;;;;;4950745;29;20048;-62
2024/02/11 07:55:58;;;;;;;8.27;2.53;;;8.20;99.90;;;;;;4947258;29;20114;-63
2024/02/11 07:58:23;;;;;;;7.65;2.38;;;8.10;99.90;;;;;;4949921;29;20028;-61
2024/02/11 08:00:49;;;;;;;8.82;2.60;;;8.10;99.90;;;;;;4947065;29;20507;-61
2024/02/11 08:03:15;;;;;;;9.45;2.60;;;8.10;99.90;;;;;;4947464;29;20039;-61
2024/02/11 08:05:41;;;;;;;9.30;2.60;;;8.00;99.90;;;;;;4948934;29;20043;-61
2024/02/11 08:08:07;;;;;;;5.70;1.85;;;8.10;99.90;;;;;;4950318;29;20035;-61
2024/02/11 08:10:32;;;;;;;7.43;2.08;;;8.10;99.90;;;;;;4950732;28;20063;-61
2024/02/11 08:12:58;;;;;;;7.05;1.75;;;8.20;99.90;;;;;;4949517;28;20041;-61
2024/02/11 08:15:24;;;;;;;8.63;2.33;;;8.10;99.90;;;;;;4944882;28;20027;-60
2024/02/11 08:17:50;;;;;;;6.80;1.77;;;8.10;99.90;;;;;;4952414;28;20038;-61
2024/02/11 08:20:17;;;;;;;9.90;2.50;;;8.10;99.90;;;;;;4955380;28;20051;-61
2024/02/11 08:22:43;;;;;;;9.07;2.65;;;8.20;99.90;;;;;;4934837;29;20027;-61
2024/02/11 08:25:10;;;;;;;7.40;2.10;;;8.20;99.90;;;;;;4955070;28;20451;-61
2024/02/11 08:27:37;;;;;;;10.27;2.15;;;8.20;99.90;;;;;;4954171;28;20027;-61
2024/02/11 08:30:05;;;;;;;8.32;1.77;;;8.20;99.90;;;;;;4950688;28;20031;-61
2024/02/11 08:32:31;;;;;;;12.13;2.20;;;8.20;99.90;;;;;;4952080;28;20229;-61
2024/02/11 08:34:56;;;;;;;11.25;2.47;;;8.20;99.90;;;;;;4947741;28;20032;-61
2024/02/11 08:37:22;;;;;;;7.38;2.03;;;8.20;99.90;;;;;;4955155;28;20016;-61
2024/02/11 08:39:48;;;;;;;11.02;2.22;;;8.30;99.90;;;;;;4954718;28;20463;-61
2024/02/11 08:42:14;;;;;;;8.07;2.22;;;8.30;99.90;;;;;;4943491;29;20023;-61
2024/02/11 08:44:40;;;;;;;5.18;1.70;;;8.30;99.90;;;;;;4950057;28;20068;-61
2024/02/11 08:47:08;;;;;;;8.38;1.58;;;8.30;99.90;;;;;;4955543;28;20766;-61
2024/02/11 08:49:34;;;;;;;5.68;1.80;;;8.40;99.90;;;;;;4951358;28;20023;-61
2024/02/11 08:52:00;;;;;;;10.32;2.50;;;8.30;99.90;;;;;;4951849;28;20455;-61
2024/02/11 08:54:26;;;;;;;7.32;2.22;;;8.30;99.90;;;;;;4951929;28;20111;-61
2024/02/11 08:56:52;;;;;;;13.68;2.40;;;8.30;99.90;;;;;;4953512;28;20633;-61
2024/02/11 08:59:17;;;;;;;12.57;2.60;;;8.30;99.90;;;;;;4953156;28;20419;-61
2024/02/11 09:01:53;;;;;;;10.48;2.55;;;8.30;99.90;;;;;;4953144;28;20534;-61
2024/02/11 09:04:20;;;;;;;10.82;2.35;;;8.30;99.90;;;;;;4950947;28;20039;-61
2024/02/11 09:06:46;;;;;;;13.38;3.03;;;8.40;99.90;;;;;;4953272;28;20031;-61
2024/02/11 09:09:12;;;;;;;12.20;3.05;;;8.40;99.90;;;;;;4955328;28;20082;-61
2024/02/11 09:11:38;;;;;;;9.77;2.92;;;8.50;99.90;;;;;;4951252;28;20024;-61
2024/02/11 09:14:03;;;;;;;13.45;3.60;;;8.50;99.90;;;;;;4953005;28;20031;-61
2024/02/11 09:16:30;;;;;;;11.23;2.55;;;8.50;99.90;;;;;;4953761;28;20023;-61
2024/02/11 09:18:56;;;;;;;11.30;3.40;;;8.50;99.90;;;;;;4952139;28;20050;-61
2024/02/11 09:21:22;;;;;;;11.30;2.75;;;8.50;99.90;;;;;;4955115;28;20035;-61
2024/02/11 09:23:48;;;;;;;8.82;3.03;;;8.50;99.90;;;;;;4951625;28;20399;-66
2024/02/11 09:26:14;;;;;;;9.07;2.92;;;8.50;99.90;;;;;;4950396;28;20050;-61
2024/02/11 09:28:39;;;;;;;11.52;2.80;;;8.50;99.90;;;;;;4949590;28;20035;-61
2024/02/11 09:31:05;;;;;;;11.15;3.15;;;8.50;99.90;;;;;;4951049;28;20040;-61
2024/02/11 09:33:31;;;;;;;8.88;2.95;;;8.50;99.90;;;;;;4951508;28;20419;-61
2024/02/11 09:35:57;;;;;;;6.82;2.22;;;8.60;99.90;;;;;;4950006;28;20030;-61
2024/02/11 09:38:22;;;;;;;8.05;2.90;;;8.70;99.90;;;;;;4949061;28;20038;-61
2024/02/11 09:40:51;;;;;;;9.05;2.92;;;8.80;99.90;;;;;;4951782;28;20627;-61
2024/02/11 09:43:20;;;;;;;11.10;2.90;;;8.80;99.90;;;;;;4948339;28;20050;-60
2024/02/11 09:45:50;;;;;;;11.57;3.20;;;8.80;99.90;;;;;;4953037;28;20086;-61
2024/02/11 09:48:17;;;;;;;8.88;2.97;;;8.80;99.90;;;;;;4951138;28;20285;-60
2024/02/11 09:50:44;;;;;;;7.43;2.60;;;8.80;99.90;;;;;;4951077;28;20043;-62
2024/02/11 09:53:14;;;;;;;11.57;3.30;;;8.70;99.90;;;;;;4949720;28;20491;-61
2024/02/11 09:55:40;;;;;;;11.15;3.63;;;8.70;99.90;;;;;;4952081;28;20770;-61
2024/02/11 09:58:06;;;;;;;12.07;3.45;;;8.60;99.90;;;;;;4950202;28;20027;-61
2024/02/11 10:00:31;;;;;;;8.48;3.28;;;8.70;99.90;;;;;;4935198;29;20035;-61
2024/02/11 10:03:01;;;;;;;11.07;3.47;;;8.80;99.90;;;;;;4952367;28;20038;-61
2024/02/11 10:05:31;;;;;;;9.50;3.47;;;8.70;99.90;;;;;;4952135;28;20039;-61
2024/02/11 10:07:58;;;;;;;;;;;8.60;99.90;;;;;;4946555;28;20035;-61
2024/02/11 10:10:24;;;;;;;9.07;3.03;;;8.70;99.90;;;;;;4953586;28;20005;-61
2024/02/11 10:12:51;;;;;;;12.15;3.47;;;8.70;99.90;;;;;;4950750;28;20670;-61
2024/02/11 10:15:19;;;;;;;14.68;4.13;;;8.60;99.90;;;;;;4952514;28;20122;-61
2024/02/11 10:17:46;;;;;;;11.60;3.58;;;8.70;99.90;;;;;;4950128;28;20162;-61
2024/02/11 10:20:17;;;;;;;10.15;3.80;;;8.80;99.90;;;;;;4950158;28;20059;-61
2024/02/11 10:22:43;;;;;;;10.30;3.53;;;8.80;99.90;;;;;;4948779;29;20077;-61
2024/02/11 10:25:11;;;;;;;11.23;4.18;;;8.80;99.90;;;;;;4926630;29;20035;-60
2024/02/11 10:27:37;;;;;;;13.98;4.13;;;8.70;99.90;;;;;;4951484;29;20015;-61
2024/02/11 10:30:08;;;;;;;10.45;4.00;;;8.60;99.90;;;;;;4951138;29;20046;-60
2024/02/11 10:32:35;;;;;;;14.00;4.15;;;8.60;99.90;;;;;;4950970;29;20063;-60
2024/02/11 10:35:04;;;;;;;12.55;4.75;;;8.60;99.90;;;;;;4950130;29;20019;-60
2024/02/11 10:37:38;;;;;;;15.40;4.55;;;8.50;99.90;;;;;;4945326;28;20028;-60
2024/02/11 10:40:11;;;;;;;12.43;4.38;;;8.50;99.90;;;;;;4947556;28;20205;-60
2024/02/11 10:42:38;;;;;;;10.45;4.28;;;8.50;99.90;;;;;;4949923;28;20467;-60
2024/02/11 10:45:04;;;;;;;10.82;3.78;;;8.60;99.90;;;;;;4932188;28;20094;-60
2024/02/11 10:47:30;;;;;;;10.05;3.97;;;8.70;99.90;;;;;;4948627;28;20446;-60
2024/02/11 10:49:55;;;;;;;10.95;3.80;;;8.80;99.90;;;;;;4948308;28;20050;-60
2024/02/11 10:52:25;;;;;;;12.25;3.88;;;8.90;99.90;;;;;;4947473;28;20043;-60
2024/02/11 10:54:55;;;;;;;14.10;4.60;;;8.80;99.90;;;;;;4945086;28;20023;-60
2024/02/11 10:57:24;;;;;;;8.90;3.60;;;8.90;99.90;;;;;;4948170;28;20450;-60
2024/02/11 10:59:58;;;;;;;10.10;3.38;;;8.90;99.90;;;;;;4946565;28;20031;-60
2024/02/11 11:02:29;;;;;;;10.70;3.58;;;9.00;99.90;;;;;;4948179;28;20038;-60
2024/02/11 11:05:03;;;;;;;10.57;3.45;;;9.00;99.90;;;;;;4949119;28;20475;-60
2024/02/11 11:07:35;;;;;;;7.72;3.10;;;9.10;99.90;;;;;;4948518;28;20408;-60
2024/02/11 11:10:02;;;;;;;8.20;3.33;;;9.10;99.90;;;;;;4946936;28;20383;-60
2024/02/11 11:12:27;;;;;;;9.20;3.25;;;9.20;99.90;;;;;;4947657;28;20037;-61
2024/02/11 11:14:57;;;;;;;6.70;2.30;;;9.30;99.90;;;;;;4947892;28;20019;-61
2024/02/11 11:17:23;;;;;;;11.60;3.75;;;9.40;99.90;;;;;;4945544;28;20022;-61
2024/02/11 11:19:56;;;;;;;7.97;2.60;;;9.50;99.90;;;;;;4947870;28;20504;-61
2024/02/11 11:22:24;;;;;;;8.88;3.08;;;9.70;99.90;;;;;;4947592;28;20372;-61
2024/02/11 11:24:57;;;;;;;9.23;2.97;;;9.90;99.90;;;;;;4948582;29;20466;-61
2024/02/11 11:27:24;;;;;;;7.38;2.65;;;10.10;99.90;;;;;;4949441;28;20553;-61
2024/02/11 11:29:50;;;;;;;9.68;3.08;;;10.30;99.90;;;;;;4944528;29;20039;-61
2024/02/11 11:32:24;;;;;;;9.27;2.60;;;10.60;99.90;;;;;;4949302;29;20020;-60
2024/02/11 11:34:51;;;;;;;7.95;2.70;;;10.50;99.90;;;;;;4943480;29;20030;-60
2024/02/11 11:37:18;;;;;;;8.35;2.67;;;10.70;99.90;;;;;;4947811;29;20196;-60
2024/02/11 11:39:44;;;;;;;8.75;3.05;;;10.60;99.90;;;;;;4949511;29;20095;-60
2024/02/11 11:42:14;;;;;;;9.32;2.33;;;10.60;99.90;;;;;;4949110;29;20451;-60
2024/02/11 11:44:40;;;;;;;8.77;2.42;;;10.60;99.90;;;;;;4944971;28;20030;-60
2024/02/11 11:47:06;;;;;;;7.07;2.03;;;10.50;99.90;;;;;;4946918;28;20032;-60
2024/02/11 11:49:34;;;;;;;8.32;2.28;;;10.40;99.90;;;;;;4951257;28;20023;-60
2024/02/11 11:52:00;;;;;;;7.05;2.45;;;10.40;99.90;;;;;;4951345;28;20086;-60
2024/02/11 11:54:30;;;;;;;11.85;3.47;;;10.50;99.90;;;;;;4949820;28;20023;-60
2024/02/11 11:57:00;;;;;;;10.82;3.28;;;10.40;99.90;;;;;;4935372;28;20031;-60
2024/02/11 11:59:26;;;;;;;9.50;3.15;;;10.30;99.90;;;;;;4954606;28;20640;-60
2024/02/11 12:01:53;;;;;;;7.57;2.65;;;10.30;99.90;;;;;;4951287;28;20098;-60
2024/02/11 12:04:19;;;;;;;9.70;2.15;;;10.40;99.90;;;;;;4933474;29;20470;-60
2024/02/11 12:06:46;;;;;;;13.55;2.88;;;10.40;99.90;;;;;;4953123;28;20031;-60
2024/02/11 12:09:14;;;;;;;7.53;2.28;;;10.40;99.90;;;;;;4939193;28;20514;-60
2024/02/11 12:11:41;;;;;;;10.45;2.42;;;10.40;99.90;;;;;;4954643;28;20031;-60
2024/02/11 12:14:09;;;;;;;6.97;2.60;;;10.50;99.90;;;;;;4935906;29;20171;-61
2024/02/11 12:16:35;;;;;;;9.30;2.55;;;10.50;99.90;;;;;;4952581;28;20054;-61
2024/02/11 12:19:01;;;;;;;13.05;2.72;;;10.70;99.90;;;;;;4956111;28;20047;-60
2024/02/11 12:21:28;;;;;;;10.98;2.45;;;10.90;99.90;;;;;;4958513;28;20712;-61
2024/02/11 12:23:54;;;;;;;8.73;2.40;;;11.10;99.90;;;;;;4951490;28;20028;-60
2024/02/11 12:26:21;;;;;;;12.40;2.70;;;11.20;99.90;;;;;;4949678;28;20038;-60
2024/02/11 12:28:51;;;;;;;5.60;1.80;;;11.40;99.90;;;;;;4950737;28;20117;-60
2024/02/11 12:31:16;;;;;;;10.23;2.40;;;11.40;99.90;;;;;;4960469;28;20027;-61
2024/02/11 12:33:44;;;;;;;13.18;2.53;;;11.30;99.90;;;;;;4951313;28;20035;-61
2024/02/11 12:36:13;;;;;;;8.68;2.63;;;11.40;99.90;;;;;;4949139;28;20023;-60
2024/02/11 12:38:44;;;;;;;8.40;2.65;;;11.30;99.90;;;;;;4949339;28;20061;-61
2024/02/11 12:41:11;;;;;;;6.30;2.00;;;11.40;99.90;;;;;;4951012;28;20546;-61
2024/02/11 12:43:44;;;;;;;11.52;2.58;;;11.40;99.90;;;;;;4948533;28;20023;-61
2024/02/11 12:46:10;;;;;;;6.25;1.45;;;11.30;99.90;;;;;;4952867;28;20026;-61